Time;durP1;ratioP1;P1;durP2;ratioP2;P2;SDS_P1;SDS_P2;PMS_P1;PMS_P2;Temp;Humidity;BMP_temperature;BMP_pressure;BME280_temperature;BME280_humidity;BME280_pressure;Samples;Min_cycle;Max_cycle;Signal;HPM_P1;HPM_P2
2023/04/26 00:01:15;;;;;;;17.30;2.00;;;;;;;-144.73;100.00;54444.66;5030195;28;20038;-71
2023/04/26 00:03:41;;;;;;;15.48;2.50;;;;;;;-144.73;100.00;54415.91;5029751;28;20032;-71
2023/04/26 00:06:08;;;;;;;26.17;3.47;;;;;;;-144.73;100.00;54415.91;5029949;28;20041;-72
2023/04/26 00:08:34;;;;;;;20.17;2.55;;;;;;;-144.73;100.00;54391.28;5030639;28;20057;-71
2023/04/26 00:11:00;;;;;;;18.05;2.78;;;;;;;-144.73;100.00;54366.66;5029822;28;20041;-72
2023/04/26 00:13:25;;;;;;;16.02;2.53;;;;;;;-144.73;100.00;54407.69;5029575;28;20040;-71
2023/04/26 00:15:51;;;;;;;28.80;3.15;;;;;;;-144.73;100.00;54440.53;5030511;28;20068;-71
2023/04/26 00:18:19;;;;;;;13.68;2.28;;;;;;;-144.73;100.00;54411.81;5029919;28;20077;-72
2023/04/26 00:20:45;;;;;;;21.40;2.53;;;;;;;-144.73;100.00;54424.13;5027763;28;20052;-70
2023/04/26 00:23:10;;;;;;;11.35;2.08;;;;;;;-144.73;100.00;54420.00;5013086;28;20021;-71
2023/04/26 00:25:36;;;;;;;17.27;2.40;;;;;;;-144.73;100.00;54428.22;5014997;28;20033;-71
2023/04/26 00:28:02;;;;;;;16.63;2.80;;;;;;;-144.73;100.00;54456.97;5033450;28;20032;-71
2023/04/26 00:30:27;;;;;;;18.15;2.08;;;;;;;-144.73;100.00;54428.22;5021559;28;20033;-72
2023/04/26 00:32:52;;;;;;;15.90;3.17;;;;;;;-144.73;100.00;54370.75;5016587;28;20049;-72
2023/04/26 00:35:18;;;;;;;23.13;2.70;;;;;;;-144.73;100.00;54407.69;5030317;28;20032;-71
2023/04/26 00:37:44;;;;;;;10.43;2.35;;;;;;;-144.73;100.00;54407.69;5017710;28;20021;-71
2023/04/26 00:40:10;;;;;;;23.70;2.78;;;;;;;-144.73;100.00;54461.06;5014977;28;20040;-71
2023/04/26 00:42:37;;;;;;;15.32;2.13;;;;;;;-144.73;100.00;54415.91;5014190;28;20041;-71
2023/04/26 00:45:03;;;;;;;14.48;3.00;;;;;;;-144.73;100.00;54424.13;5015237;28;20037;-71
2023/04/26 00:47:29;;;;;;;18.63;2.40;;;;;;;-144.73;100.00;54444.66;5030541;28;20097;-71
2023/04/26 00:49:55;;;;;;;22.35;2.33;;;;;;;-144.73;100.00;54422.06;5027822;28;20053;-71
2023/04/26 00:52:20;;;;;;;18.33;2.83;;;;;;;-144.73;100.00;54428.22;5029455;28;20053;-71
2023/04/26 00:54:48;;;;;;;11.38;2.25;;;;;;;-144.73;100.00;54452.84;5012231;28;20025;-71
2023/04/26 00:57:13;;;;;;;20.92;3.08;;;;;;;-144.73;100.00;54448.75;5029976;28;20108;-71
2023/04/26 00:59:38;;;;;;;16.73;2.25;;;;;;;-144.73;100.00;54407.69;5027438;28;20109;-71
2023/04/26 01:02:04;;;;;;;12.32;2.13;;;;;;;-144.73;100.00;54436.44;5028645;28;20462;-71
2023/04/26 01:04:30;;;;;;;13.18;2.25;;;;;;;-144.73;100.00;54473.38;5011887;28;20034;-71
2023/04/26 01:06:56;;;;;;;10.45;2.33;;;;;;;-144.73;100.00;54440.53;5010066;28;20108;-71
2023/04/26 01:09:21;;;;;;;18.50;2.88;;;;;;;-144.73;100.00;54444.66;5014615;28;20033;-72
2023/04/26 01:11:47;;;;;;;16.05;2.42;;;;;;;-144.73;100.00;54409.75;5014818;28;20009;-72
2023/04/26 01:14:13;;;;;;;15.95;2.75;;;;;;;-144.73;100.00;54407.69;5011902;28;20104;-72
2023/04/26 01:16:39;;;;;;;21.90;2.70;;;;;;;-144.73;100.00;54411.81;5029761;28;20082;-72
2023/04/26 01:19:12;;;;;;;18.90;2.83;;;;;;;-144.73;100.00;54440.53;5028465;28;20025;-72
2023/04/26 01:21:38;;;;;;;20.45;3.10;;;;;;;-144.73;100.00;54444.66;5027187;28;20029;-72
2023/04/26 01:24:04;;;;;;;22.60;3.25;;;;;;;-144.73;100.00;54428.22;5008588;28;20361;-72
2023/04/26 01:26:31;;;;;;;14.73;3.00;;;;;;;-144.73;100.00;54452.84;5009974;28;20385;-72
2023/04/26 01:28:57;;;;;;;16.77;3.50;;;;;;;-144.73;100.00;54415.91;5028470;28;20025;-72
2023/04/26 01:31:22;;;;;;;16.83;3.85;;;;;;;-144.73;100.00;54417.97;5014900;28;20038;-71
2023/04/26 01:33:48;;;;;;;31.55;4.88;;;;;;;-144.73;100.00;54436.44;5011841;28;20022;-72
2023/04/26 01:36:13;;;;;;;15.40;3.00;;;;;;;-144.73;100.00;54456.97;5014250;28;20508;-72
2023/04/26 01:38:39;;;;;;;19.45;4.10;;;;;;;-144.73;100.00;54424.13;5029660;28;20037;-72
2023/04/26 01:41:04;;;;;;;18.65;3.85;;;;;;;-144.73;100.00;54428.22;5010981;28;20033;-72
2023/04/26 01:43:29;;;;;;;12.68;4.40;;;;;;;-144.73;100.00;54422.06;5028373;28;20029;-72
2023/04/26 01:45:55;;;;;;;23.73;4.35;;;;;;;-144.73;100.00;54407.69;5014419;28;20029;-71
2023/04/26 01:48:20;;;;;;;18.60;4.15;;;;;;;-144.73;100.00;54424.13;5025480;28;20105;-72
2023/04/26 01:50:46;;;;;;;25.08;4.80;;;;;;;-144.73;100.00;54436.44;5010880;28;20037;-72
2023/04/26 01:53:11;;;;;;;24.00;4.13;;;;;;;-144.73;100.00;54424.13;5015627;28;20032;-72
2023/04/26 01:55:37;;;;;;;18.88;3.90;;;;;;;-144.73;100.00;54415.91;5023492;28;20034;-72
2023/04/26 01:58:02;;;;;;;28.33;4.85;;;;;;;-144.73;100.00;54411.81;5027967;28;20104;-72
2023/04/26 02:00:28;;;;;;;19.10;4.32;;;;;;;-144.73;100.00;54428.22;5029177;28;20030;-72
2023/04/26 02:02:54;;;;;;;29.80;4.93;;;;;;;-144.73;100.00;54424.13;5012204;28;20030;-72
2023/04/26 02:05:20;;;;;;;19.00;4.10;;;;;;;-144.73;100.00;54469.28;5013973;28;20037;-72
2023/04/26 02:07:45;;;;;;;22.67;4.50;;;;;;;-144.73;100.00;54434.38;5027684;28;20029;-72
2023/04/26 02:10:11;;;;;;;24.75;4.88;;;;;;;-144.73;100.00;54387.19;5028603;28;20029;-72
2023/04/26 02:12:36;;;;;;;14.98;4.50;;;;;;;-144.73;100.00;54391.28;5032423;28;20032;-72
2023/04/26 02:15:02;;;;;;;21.55;3.83;;;;;;;-144.73;100.00;54452.84;5031763;28;20084;-72
2023/04/26 02:17:28;;;;;;;28.05;5.22;;;;;;;-144.73;100.00;54424.13;5033110;28;20033;-72
2023/04/26 02:19:53;;;;;;;24.90;4.25;;;;;;;-144.73;100.00;54440.53;5017394;28;20128;-70
2023/04/26 02:22:20;;;;;;;29.67;5.05;;;;;;;-144.73;100.00;54432.31;5014897;28;20468;-72
2023/04/26 02:24:46;;;;;;;23.80;4.30;;;;;;;-144.73;100.00;54387.19;5032443;28;20033;-73
2023/04/26 02:27:11;;;;;;;23.98;5.35;;;;;;;-144.73;100.00;54436.44;5031998;28;20030;-72
2023/04/26 02:29:37;;;;;;;20.30;4.88;;;;;;;-144.73;100.00;54415.91;5037296;28;20125;-73
2023/04/26 02:32:04;;;;;;;22.35;5.78;;;;;;;-144.73;100.00;54420.00;5053699;28;20037;-71
2023/04/26 02:34:29;;;;;;;25.38;5.40;;;;;;;-144.73;100.00;54440.53;5047795;28;20044;-71
2023/04/26 02:36:54;;;;;;;29.13;5.03;;;;;;;-144.73;100.00;54454.91;5016195;28;20111;-71
2023/04/26 02:39:20;;;;;;;25.08;5.22;;;;;;;-144.73;100.00;54424.13;5015766;28;20033;-71
2023/04/26 02:41:45;;;;;;;38.67;5.32;;;;;;;-144.73;100.00;54436.44;5032127;28;20057;-72
2023/04/26 02:44:11;;;;;;;23.90;5.38;;;;;;;-144.73;100.00;54415.91;5031893;28;20029;-72
2023/04/26 02:46:36;;;;;;;23.80;5.40;;;;;;;-144.73;100.00;54456.97;5015805;28;20104;-72
2023/04/26 02:49:02;;;;;;;20.43;5.03;;;;;;;-144.73;100.00;54493.91;5032957;28;20081;-72
2023/04/26 02:51:27;;;;;;;19.15;4.05;;;;;;;-144.73;100.00;54452.84;5031294;28;20041;-72
2023/04/26 02:53:52;;;;;;;15.93;4.33;;;;;;;-144.73;100.00;54485.69;5032122;28;20048;-72
2023/04/26 02:56:18;;;;;;;18.45;4.13;;;;;;;-144.73;100.00;54420.00;5031726;28;20135;-72
2023/04/26 02:58:44;;;;;;;16.37;3.53;;;;;;;-144.73;100.00;54448.75;5031844;28;20092;-72
2023/04/26 03:01:09;;;;;;;20.50;3.88;;;;;;;-144.73;100.00;54444.66;5032584;28;20033;-72
2023/04/26 03:03:35;;;;;;;27.98;4.38;;;;;;;-144.73;100.00;54432.31;5031816;28;20096;-72
2023/04/26 03:06:01;;;;;;;21.90;3.72;;;;;;;-144.73;100.00;54420.00;5031475;28;20041;-72
2023/04/26 03:08:26;;;;;;;18.27;4.03;;;;;;;-144.73;100.00;54456.97;5033028;28;20043;-72
2023/04/26 03:10:52;;;;;;;18.45;3.65;;;;;;;-144.73;100.00;54465.16;5030962;28;20037;-72
2023/04/26 03:13:17;;;;;;;17.55;3.38;;;;;;;-144.73;100.00;54424.13;5015406;28;20029;-72
2023/04/26 03:15:45;;;;;;;16.40;4.50;;;;;;;-144.73;100.00;54444.66;5030784;28;20060;-72
2023/04/26 03:18:10;;;;;;;19.58;4.25;;;;;;;-144.73;100.00;54436.44;5015020;28;20063;-72
2023/04/26 03:20:35;;;;;;;21.85;4.82;;;;;;;-144.73;100.00;54424.13;5030263;28;20057;-71
2023/04/26 03:23:00;;;;;;;26.25;5.80;;;;;;;-144.73;100.00;54469.28;5031226;28;20038;-71
2023/04/26 03:25:26;;;;;;;32.60;5.10;;;;;;;-144.73;100.00;54432.31;5014581;28;20044;-71
2023/04/26 03:27:51;;;;;;;19.42;4.90;;;;;;;-144.73;100.00;54444.66;5032136;28;20036;-71
2023/04/26 03:30:16;;;;;;;20.33;5.28;;;;;;;-144.73;100.00;54420.00;5014025;28;20041;-71
2023/04/26 03:32:42;;;;;;;26.90;5.40;;;;;;;-144.73;100.00;54452.84;5032692;28;20460;-71
2023/04/26 03:35:09;;;;;;;32.15;5.80;;;;;;;-144.73;100.00;54444.66;5030625;28;20052;-71
2023/04/26 03:37:34;;;;;;;25.90;5.53;;;;;;;-144.73;100.00;54481.59;5032390;28;20025;-71
2023/04/26 03:40:00;;;;;;;30.33;5.63;;;;;;;-144.73;100.00;54424.13;5014167;28;20121;-71
2023/04/26 03:42:25;;;;;;;20.77;5.47;;;;;;;-144.73;100.00;54448.75;5031034;28;20487;-71
2023/04/26 03:44:50;;;;;;;15.98;5.22;;;;;;;-144.73;100.00;54387.19;5031041;28;20038;-71
2023/04/26 03:47:16;;;;;;;25.07;5.47;;;;;;;-144.73;100.00;54442.59;5031926;28;20033;-71
2023/04/26 03:49:41;;;;;;;24.35;5.00;;;;;;;-144.73;100.00;54442.59;5018497;28;20108;-71
2023/04/26 03:52:07;;;;;;;19.92;5.22;;;;;;;-144.73;100.00;54424.13;5030864;28;20032;-71
2023/04/26 03:54:33;;;;;;;24.75;5.53;;;;;;;-144.73;100.00;54407.69;5030940;28;20033;-71
2023/04/26 03:56:58;;;;;;;24.17;5.28;;;;;;;-144.73;100.00;54436.44;5031743;28;20084;-71
2023/04/26 03:59:24;;;;;;;30.27;5.33;;;;;;;-144.73;100.00;54452.84;5013037;28;20034;-73
2023/04/26 04:01:49;;;;;;;29.10;4.90;;;;;;;-144.73;100.00;54430.28;5021864;28;20026;-73
2023/04/26 04:04:15;;;;;;;22.83;5.00;;;;;;;-144.73;100.00;54452.84;5023513;28;20030;-73
2023/04/26 04:06:41;;;;;;;32.42;4.78;;;;;;;-144.73;100.00;54473.38;5005818;28;20025;-73
2023/04/26 04:09:06;;;;;;;18.45;4.05;;;;;;;-144.73;100.00;54452.84;5027450;28;20025;-73
2023/04/26 04:11:32;;;;;;;23.20;5.23;;;;;;;-144.73;100.00;54436.44;5029013;28;20013;-74
2023/04/26 04:13:57;;;;;;;24.00;5.20;;;;;;;-144.73;100.00;54420.00;5012537;28;20017;-73
2023/04/26 04:16:22;;;;;;;29.83;5.33;;;;;;;-144.73;100.00;54428.22;5012185;28;20048;-73
2023/04/26 04:18:48;;;;;;;23.00;4.55;;;;;;;-144.73;100.00;54436.44;5027544;28;20030;-73
2023/04/26 04:21:13;;;;;;;17.37;4.20;;;;;;;-144.73;100.00;54438.50;5025856;28;20119;-73
2023/04/26 04:23:39;;;;;;;32.17;5.53;;;;;;;-144.73;100.00;54461.06;5028423;28;20112;-73
2023/04/26 04:26:04;;;;;;;26.50;5.13;;;;;;;-144.73;100.00;54430.28;5011934;28;20034;-73
2023/04/26 04:28:31;;;;;;;31.87;6.10;;;;;;;-144.73;100.00;54420.00;5012485;28;20021;-73
2023/04/26 04:30:57;;;;;;;20.00;5.27;;;;;;;-144.73;100.00;54432.31;5027985;28;20030;-73
2023/04/26 04:33:24;;;;;;;28.23;4.87;;;;;;;-144.73;100.00;54417.97;5027214;28;20109;-73
2023/04/26 04:35:51;;;;;;;26.23;4.97;;;;;;;-144.73;100.00;54485.69;5028614;28;20055;-73
2023/04/26 04:38:17;;;;;;;30.95;6.20;;;;;;;-144.73;100.00;54454.91;5024631;28;20088;-73
2023/04/26 04:40:42;;;;;;;28.40;6.53;;;;;;;-144.73;100.00;54407.69;5010923;28;20037;-73
2023/04/26 04:43:07;;;;;;;12.23;4.80;;;;;;;-144.73;100.00;54452.84;5015601;28;20012;-73
2023/04/26 04:45:34;;;;;;;21.70;5.88;;;;;;;-144.73;100.00;54452.84;5025922;28;20026;-73
2023/04/26 04:47:59;;;;;;;25.67;5.32;;;;;;;-144.73;100.00;54428.22;5012124;28;20025;-73
2023/04/26 04:50:25;;;;;;;18.30;5.03;;;;;;;-144.73;100.00;54417.97;5023892;28;20017;-73
2023/04/26 04:52:50;;;;;;;29.30;6.03;;;;;;;-144.73;100.00;54430.28;5010424;28;20091;-73
2023/04/26 04:55:16;;;;;;;23.00;6.65;;;;;;;-144.73;100.00;54407.69;5024173;28;20029;-73
2023/04/26 04:57:41;;;;;;;27.88;5.45;;;;;;;-144.73;100.00;54456.97;5022643;28;20045;-73
2023/04/26 05:00:11;;;;;;;22.75;5.68;;;;;;;-144.73;100.00;54436.44;5011147;28;20102;-73
2023/04/26 05:02:36;;;;;;;32.75;5.78;;;;;;;-144.73;100.00;54473.38;5011908;28;20028;-73
2023/04/26 05:05:03;;;;;;;20.60;5.90;;;;;;;-144.73;100.00;54434.38;5008743;28;20034;-73
2023/04/26 05:07:30;;;;;;;22.42;5.90;;;;;;;-144.73;100.00;54448.75;5027062;28;20048;-73
2023/04/26 05:09:56;;;;;;;30.63;6.45;;;;;;;-144.73;100.00;54448.75;5008387;28;20037;-73
2023/04/26 05:12:21;;;;;;;19.90;6.32;;;;;;;-144.73;100.00;54489.81;5028271;28;20025;-74
2023/04/26 05:14:46;;;;;;;31.00;5.95;;;;;;;-144.73;100.00;54452.84;5028232;28;20033;-74
2023/04/26 05:17:12;;;;;;;18.75;5.80;;;;;;;-144.73;100.00;54448.75;5012152;28;20032;-73
2023/04/26 05:19:37;;;;;;;14.52;5.22;;;;;;;-144.73;100.00;54448.75;5010744;28;20026;-73
2023/04/26 05:22:02;;;;;;;29.90;7.03;;;;;;;-144.73;100.00;54473.38;5029196;28;20025;-73
2023/04/26 05:24:31;;;;;;;20.55;5.32;;;;;;;-144.73;100.00;54477.47;5027774;28;20109;-73
2023/04/26 05:26:57;;;;;;;22.75;5.90;;;;;;;-144.73;100.00;54477.47;5011516;28;20120;-73
2023/04/26 05:29:23;;;;;;;19.70;6.43;;;;;;;-144.73;100.00;54440.53;5010453;28;20060;-73
2023/04/26 05:31:48;;;;;;;25.05;6.32;;;;;;;-144.73;100.00;54456.97;5029473;28;20469;-73
2023/04/26 05:34:13;;;;;;;31.90;7.47;;;;;;;-144.73;100.00;54452.84;5027931;28;20021;-73
2023/04/26 05:36:39;;;;;;;32.92;7.28;;;;;;;-144.73;100.00;54456.97;5028280;28;20025;-73
2023/04/26 05:39:05;;;;;;;19.05;6.18;;;;;;;-144.73;100.00;54473.38;5010534;28;20033;-73
2023/04/26 05:41:30;;;;;;;21.70;6.50;;;;;;;-144.73;100.00;54432.31;5029129;28;20018;-73
2023/04/26 05:43:56;;;;;;;27.60;5.80;;;;;;;-144.73;100.00;54448.75;5011036;28;20105;-73
2023/04/26 05:46:21;;;;;;;22.40;5.50;;;;;;;-144.73;100.00;54473.38;5030559;28;20026;-73
2023/04/26 05:48:46;;;;;;;16.65;6.03;;;;;;;-144.73;100.00;54469.28;5032599;28;20096;-73
2023/04/26 05:51:12;;;;;;;22.88;5.57;;;;;;;-144.73;100.00;54417.97;5014921;28;20030;-73
2023/04/26 05:53:37;;;;;;;17.05;6.20;;;;;;;-144.73;100.00;54477.47;5015323;28;20022;-73
2023/04/26 05:56:03;;;;;;;27.50;6.63;;;;;;;-144.73;100.00;54434.38;5031262;28;20156;-73
2023/04/26 05:58:28;;;;;;;21.58;6.18;;;;;;;-144.73;100.00;54432.31;5028280;28;20018;-74
2023/04/26 06:00:54;;;;;;;23.45;6.60;;;;;;;-144.73;100.00;54440.53;5014285;28;20029;-73
2023/04/26 06:03:19;;;;;;;18.67;5.70;;;;;;;-144.73;100.00;54487.75;5031358;28;20499;-74
2023/04/26 06:05:45;;;;;;;19.75;6.50;;;;;;;-144.73;100.00;54420.00;5031943;28;20026;-73
2023/04/26 06:08:10;;;;;;;16.48;6.13;;;;;;;-144.73;100.00;54420.00;5030640;28;20025;-72
2023/04/26 06:10:38;;;;;;;22.55;6.03;;;;;;;-144.73;100.00;54448.75;5030409;28;20102;-72
2023/04/26 06:13:04;;;;;;;25.50;6.18;;;;;;;-144.73;100.00;54415.91;5014812;28;20033;-72
2023/04/26 06:15:30;;;;;;;19.75;6.32;;;;;;;-144.73;100.00;54485.69;5032684;28;20041;-72
2023/04/26 06:17:56;;;;;;;26.58;6.13;;;;;;;-144.73;100.00;54469.28;5028225;28;20056;-72
2023/04/26 06:20:21;;;;;;;25.60;5.82;;;;;;;-144.73;100.00;54424.13;5014731;28;20057;-72
2023/04/26 06:22:47;;;;;;;26.95;6.30;;;;;;;-144.73;100.00;54407.69;5015247;28;20029;-72
2023/04/26 06:25:12;;;;;;;20.60;5.80;;;;;;;-144.73;100.00;54415.91;5023176;28;20049;-72
2023/04/26 06:27:38;;;;;;;30.45;5.65;;;;;;;-144.73;100.00;54465.16;5008444;28;20029;-72
2023/04/26 06:30:05;;;;;;;21.73;5.28;;;;;;;-144.73;100.00;54444.66;5024941;28;20048;-72
2023/04/26 06:32:30;;;;;;;24.55;6.00;;;;;;;-144.73;100.00;54452.84;5016149;28;20075;-73
2023/04/26 06:34:56;;;;;;;16.65;4.80;;;;;;;-144.73;100.00;54465.16;5013065;28;20041;-74
2023/04/26 06:37:21;;;;;;;28.58;5.50;;;;;;;-144.73;100.00;54465.16;5001229;28;20152;-71
2023/04/26 06:39:46;;;;;;;18.45;6.15;;;;;;;-144.73;100.00;54469.28;5020362;28;20064;-72
2023/04/26 06:42:12;;;;;;;26.92;5.45;;;;;;;-144.73;100.00;54461.06;5022899;28;20025;-71
2023/04/26 06:44:37;;;;;;;19.13;6.13;;;;;;;-144.73;100.00;54452.84;5024851;28;20073;-71
2023/04/26 06:47:02;;;;;;;21.20;5.93;;;;;;;-144.73;100.00;54426.16;5023489;28;20119;-71
2023/04/26 06:49:28;;;;;;;23.73;6.22;;;;;;;-144.73;100.00;54432.31;5004253;28;20128;-72
2023/04/26 06:51:53;;;;;;;27.20;5.70;;;;;;;-144.73;100.00;54461.06;5007897;28;20085;-72
2023/04/26 06:54:19;;;;;;;23.55;5.20;;;;;;;-144.73;100.00;54424.13;5008308;28;20033;-72
2023/04/26 06:56:45;;;;;;;22.55;5.22;;;;;;;-144.73;100.00;54446.69;5022770;28;20025;-72
2023/04/26 06:59:10;;;;;;;34.58;5.57;;;;;;;-144.73;100.00;54440.53;5003447;28;20404;-71
2023/04/26 07:01:35;;;;;;;19.75;5.10;;;;;;;-144.73;100.00;54428.22;5021754;28;20500;-73
2023/04/26 07:04:03;;;;;;;24.58;5.97;;;;;;;-144.73;100.00;54452.84;4997570;28;20045;-73
2023/04/26 07:06:29;;;;;;;20.73;3.75;;;;;;;-144.73;100.00;54502.13;5024210;28;20038;-73
2023/04/26 07:08:54;;;;;;;22.40;5.10;;;;;;;-144.73;100.00;54440.53;5004657;28;20033;-72
2023/04/26 07:11:20;;;;;;;18.55;4.78;;;;;;;-144.73;100.00;54448.75;5007130;28;20472;-72
2023/04/26 07:13:46;;;;;;;16.85;4.60;;;;;;;-144.73;100.00;54436.44;5007752;28;20551;-73
2023/04/26 07:16:11;;;;;;;18.88;5.57;;;;;;;-144.73;100.00;54456.97;5025250;28;20033;-72
2023/04/26 07:18:39;;;;;;;22.08;5.07;;;;;;;-144.73;100.00;54411.81;5026133;28;20038;-73
2023/04/26 07:21:04;;;;;;;18.50;4.78;;;;;;;-144.73;100.00;54446.69;5022965;28;20489;-73
2023/04/26 07:23:31;;;;;;;19.83;4.03;;;;;;;-144.73;100.00;54409.75;5008663;28;20025;-74
2023/04/26 07:25:57;;;;;;;16.77;4.28;;;;;;;-144.73;100.00;54444.66;5005695;28;20392;-73
2023/04/26 07:28:22;;;;;;;18.10;5.35;;;;;;;-144.73;100.00;54465.16;5007338;28;20057;-72
2023/04/26 07:30:47;;;;;;;20.33;4.15;;;;;;;-144.73;100.00;54436.44;5025008;28;20032;-72
2023/04/26 07:33:13;;;;;;;31.02;4.55;;;;;;;-144.73;100.00;54481.59;5023922;28;20081;-72
2023/04/26 07:35:38;;;;;;;25.73;4.47;;;;;;;-144.73;100.00;54440.53;5008878;28;20033;-72
2023/04/26 07:38:03;;;;;;;30.10;4.43;;;;;;;-144.73;100.00;54409.75;5022682;28;20037;-73
2023/04/26 07:40:30;;;;;;;21.48;3.85;;;;;;;-144.73;99.07;54407.69;5019546;28;20029;-73
2023/04/26 07:42:55;;;;;;;24.73;4.60;;;;;;;-144.73;99.81;54432.31;5005568;28;20100;-72
2023/04/26 07:45:21;;;;;;;24.90;3.22;;;;;;;-144.73;96.91;54407.69;5024337;28;20037;-72
2023/04/26 07:47:46;;;;;;;27.25;4.68;;;;;;;-144.73;96.99;54399.50;5025937;28;20033;-73
2023/04/26 07:50:12;;;;;;;18.40;4.03;;;;;;;-144.73;97.83;54399.50;5019263;28;20044;-72
2023/04/26 07:52:38;;;;;;;21.48;3.60;;;;;;;-144.73;98.14;54440.53;5024856;28;20041;-73
2023/04/26 07:55:04;;;;;;;14.50;3.53;;;;;;;-144.73;93.77;54383.06;4995609;28;20054;-73
2023/04/26 07:57:29;;;;;;;20.10;3.72;;;;;;;-144.73;91.93;54436.44;5019794;28;20115;-73
2023/04/26 07:59:55;;;;;;;16.95;3.45;;;;;;;-144.73;94.60;54432.31;5003747;28;20129;-73
2023/04/26 08:02:21;;;;;;;15.25;3.63;;;;;;;-144.73;95.03;54442.59;5023939;28;20029;-71
2023/04/26 08:04:48;;;;;;;14.23;3.63;;;;;;;-144.73;94.10;54448.75;5025081;28;20097;-73
2023/04/26 08:07:14;;;;;;;17.48;3.33;;;;;;;-144.73;95.61;54407.69;5021415;28;20030;-73
2023/04/26 08:09:40;;;;;;;13.55;3.13;;;;;;;-144.73;100.00;54469.28;5019355;28;20040;-72
2023/04/26 08:12:05;;;;;;;9.57;3.40;;;;;;;-144.73;100.00;54456.97;5022987;28;20029;-72
2023/04/26 08:14:33;;;;;;;12.57;3.17;;;;;;;-144.73;100.00;54432.31;5022430;28;20033;-72
2023/04/26 08:16:58;;;;;;;13.15;2.03;;;;;;;-144.73;100.00;54473.38;5024079;28;20100;-72
2023/04/26 08:19:25;;;;;;;10.77;2.80;;;;;;;-144.73;100.00;54424.13;5023605;28;20129;-71
2023/04/26 08:21:51;;;;;;;9.60;2.80;;;;;;;-144.73;100.00;54448.75;5006768;28;20033;-72
2023/04/26 08:24:16;;;;;;;12.48;2.67;;;;;;;-144.73;100.00;54407.69;5022300;28;20031;-72
2023/04/26 08:26:41;;;;;;;10.98;2.90;;;;;;;-144.73;100.00;54456.97;5022613;28;20025;-72
2023/04/26 08:29:07;;;;;;;9.38;2.70;;;;;;;-144.73;100.00;54436.44;5021586;28;20025;-72
2023/04/26 08:31:32;;;;;;;10.95;2.92;;;;;;;-144.73;100.00;54428.22;5006673;28;20018;-74
2023/04/26 08:33:57;;;;;;;16.50;3.78;;;;;;;-144.73;100.00;54440.53;5023361;28;20021;-72
2023/04/26 08:36:23;;;;;;;11.75;2.90;;;;;;;-144.73;100.00;54415.91;5003303;28;20048;-72
2023/04/26 08:38:48;;;;;;;16.58;3.85;;;;;;;-144.73;100.00;54415.91;5022573;28;20032;-72
2023/04/26 08:41:18;;;;;;;8.82;2.95;;;;;;;-144.73;100.00;54450.81;5022912;28;20033;-72
2023/04/26 08:43:44;;;;;;;22.88;3.53;;;;;;;-144.73;100.00;54378.97;5006318;28;20167;-72
2023/04/26 08:46:15;;;;;;;11.70;3.38;;;;;;;-144.73;100.00;54424.13;5006321;28;20093;-71
2023/04/26 08:48:40;;;;;;;13.77;3.33;;;;;;;-144.73;100.00;54465.16;5004194;28;20083;-71
2023/04/26 08:51:08;;;;;;;28.98;3.97;;;;;;;-144.73;100.00;54473.38;5005286;28;20026;-71
2023/04/26 08:53:34;;;;;;;15.35;3.40;;;;;;;-144.73;100.00;54448.75;5023734;28;20028;-71
2023/04/26 08:56:01;;;;;;;15.30;4.00;;;;;;;-144.73;100.00;54420.00;5022264;28;20037;-71
2023/04/26 08:58:26;;;;;;;21.08;4.63;;;;;;;-144.73;100.00;54452.84;5022753;28;20472;-72
2023/04/26 09:00:52;;;;;;;15.57;3.42;;;;;;;-144.73;100.00;54420.00;5005005;28;20044;-72
2023/04/26 09:03:18;;;;;;;13.98;3.35;;;;;;;-144.73;100.00;54411.81;5007136;28;20120;-72
2023/04/26 09:05:44;;;;;;;18.02;3.85;;;;;;;-144.73;100.00;54415.91;5010654;28;20137;-72
2023/04/26 09:08:15;;;;;;;21.02;3.90;;;;;;;-144.73;100.00;54432.31;5008140;28;20044;-72
2023/04/26 09:10:40;;;;;;;15.35;4.05;;;;;;;-144.73;99.82;54395.38;5005600;28;20029;-72
2023/04/26 09:13:06;;;;;;;18.58;4.57;;;;;;;-144.73;100.00;54387.19;5008168;28;20033;-74
2023/04/26 09:15:31;;;;;;;17.10;3.88;;;;;;;-144.73;100.00;54436.44;5020237;28;20025;-72
2023/04/26 09:18:15;;;;;;;11.27;3.90;;;;;;;-144.73;100.00;54456.97;5007080;28;20029;-72
2023/04/26 09:20:40;;;;;;;20.92;4.43;;;;;;;-144.73;100.00;54438.50;5024544;28;20037;-71
2023/04/26 09:23:08;;;;;;;14.65;4.20;;;;;;;-144.73;100.00;54397.44;5009644;28;20104;-72
2023/04/26 09:25:34;;;;;;;19.42;3.40;;;;;;;-144.73;100.00;54442.59;5023797;28;20033;-72
2023/04/26 09:28:02;;;;;;;13.93;4.50;;;;;;;-144.73;100.00;54473.38;5026702;28;21111;-73
2023/04/26 09:30:28;;;;;;;20.67;4.03;;;;;;;-144.73;100.00;54454.91;5010066;28;20025;-73
2023/04/26 09:32:57;;;;;;;17.65;4.28;;;;;;;-144.73;100.00;54459.00;5010600;28;20036;-73
2023/04/26 09:35:33;;;;;;;16.85;3.75;;;;;;;-144.73;100.00;54444.66;5010599;28;20061;-73
2023/04/26 09:38:06;;;;;;;20.15;4.47;;;;;;;-144.73;97.87;54395.38;5025731;28;20116;-73
2023/04/26 09:40:37;;;;;;;18.00;3.97;;;;;;;-144.73;95.92;54383.06;5005980;28;20064;-74
2023/04/26 09:43:04;;;;;;;17.95;2.88;;;;;;;-144.73;94.56;54469.28;5005338;28;20034;-73
2023/04/26 09:45:31;;;;;;;10.50;2.40;;;;;;;-144.73;90.15;54440.53;5023440;28;20033;-74
2023/04/26 09:48:13;;;;;;;15.13;3.20;;;;;;;-144.73;93.22;54444.66;5025689;28;20053;-73
2023/04/26 09:50:38;;;;;;;8.10;2.20;;;;;;;-144.73;91.70;54428.22;5025680;28;20025;-73
2023/04/26 09:53:04;;;;;;;9.98;2.58;;;;;;;-144.73;88.25;54422.06;5009894;28;20025;-73
2023/04/26 09:55:30;;;;;;;15.60;2.20;;;;;;;-144.73;85.27;54399.50;5009883;28;20032;-74
2023/04/26 09:57:57;;;;;;;12.52;2.00;;;;;;;-144.73;82.73;54415.91;5008980;28;20469;-74
2023/04/26 10:00:24;;;;;;;14.18;2.17;;;;;;;-144.73;76.70;54415.91;5026967;28;20037;-74
2023/04/26 10:02:51;;;;;;;8.43;1.77;;;;;;;-144.73;76.57;54387.19;5008352;28;20025;-73
2023/04/26 10:05:17;;;;;;;7.93;1.90;;;;;;;-144.73;74.84;54407.69;5007799;28;20112;-74
2023/04/26 10:07:44;;;;;;;13.98;1.95;;;;;;;-144.73;74.17;54395.38;5010618;28;20116;-74
2023/04/26 10:10:10;;;;;;;10.20;2.50;;;;;;;-144.73;72.28;54436.44;5015167;28;20033;-74
2023/04/26 10:12:36;;;;;;;9.40;2.22;;;;;;;-144.73;71.11;54420.00;5026484;28;20108;-74
2023/04/26 10:15:03;;;;;;;16.95;2.58;;;;;;;-144.73;70.11;54399.50;5026466;28;20130;-74
2023/04/26 10:17:28;;;;;;;14.13;2.40;;;;;;;-144.73;68.62;54456.97;5004293;28;20030;-73
2023/04/26 10:19:57;;;;;;;12.57;2.50;;;;;;;-144.73;69.44;54440.53;5011207;28;20052;-74
2023/04/26 10:22:26;;;;;;;12.50;2.03;;;;;;;-144.73;74.03;54444.66;5023326;28;20029;-74
2023/04/26 10:24:53;;;;;;;9.15;2.10;;;;;;;-144.73;77.94;54420.00;5021704;28;20076;-73
2023/04/26 10:27:44;;;;;;;8.05;2.75;;;;;;;-144.73;83.36;54415.91;5005543;28;20026;-73
2023/04/26 10:30:14;;;;;;;11.77;1.67;;;;;;;-144.73;79.92;54395.38;5031659;28;20041;-72
2023/04/26 10:33:00;;;;;;;15.82;2.03;;;;;;;-144.73;78.66;54407.69;5007348;28;20018;-73
2023/04/26 10:35:27;;;;;;;12.23;2.65;;;;;;;-144.73;77.93;54368.69;4995017;28;20067;-73
2023/04/26 10:37:58;;;;;;;6.75;1.95;;;;;;;-144.73;73.96;54411.81;5022548;28;20033;-73
2023/04/26 10:40:25;;;;;;;14.25;2.22;;;;;;;-144.73;73.29;54387.19;5019005;28;20102;-73
2023/04/26 10:42:50;;;;;;;14.45;2.33;;;;;;;-144.73;70.67;54407.69;5027587;28;20056;-72
2023/04/26 10:45:29;;;;;;;12.98;2.50;;;;;;;-144.73;70.65;54383.06;5026761;28;20057;-73
2023/04/26 10:48:16;;;;;;;9.55;2.20;;;;;;;-144.73;66.92;54383.06;5026239;28;20021;-73
2023/04/26 10:51:00;;;;;;;16.00;2.50;;;;;;;-144.73;65.87;54411.81;5024953;28;20107;-74
2023/04/26 10:53:29;;;;;;;10.38;1.85;;;;;;;-144.73;65.35;54391.28;5024806;28;20116;-73
2023/04/26 10:55:54;;;;;;;17.40;2.53;;;;;;;-144.73;65.46;54411.81;5008719;28;20038;-74
2023/04/26 10:58:27;;;;;;;5.72;1.90;;;;;;;-144.73;70.26;54420.00;5025924;28;20048;-73
2023/04/26 11:01:17;;;;;;;11.48;2.75;;;;;;;-144.73;69.02;54456.97;5023593;28;20048;-72